createdAt,value
2023-05-02T00:00:34.261Z,63.45
2023-05-02T00:03:00.454Z,63.43
2023-05-02T00:05:26.719Z,63.57
2023-05-02T00:07:52.971Z,63.63
2023-05-02T00:10:19.092Z,63.56
2023-05-02T00:12:45.202Z,63.68
2023-05-02T00:15:11.288Z,63.63
2023-05-02T00:17:37.453Z,63.43
2023-05-02T00:20:03.571Z,63.53
2023-05-02T00:22:29.675Z,63.49
2023-05-02T00:24:55.799Z,63.59
2023-05-02T00:27:21.887Z,63.57
2023-05-02T00:29:47.995Z,63.51
2023-05-02T00:32:14.389Z,63.48
2023-05-02T00:34:40.491Z,63.58
2023-05-02T00:37:06.603Z,63.38
2023-05-02T00:39:32.940Z,63.46
2023-05-02T00:41:59.061Z,63.51
2023-05-02T00:44:25.170Z,63.45
2023-05-02T00:46:51.326Z,63.57
2023-05-02T00:49:17.526Z,63.40
2023-05-02T00:51:43.620Z,63.46
2023-05-02T00:54:09.736Z,63.62
2023-05-02T00:56:35.863Z,63.63
2023-05-02T00:59:06.006Z,63.58
2023-05-02T01:01:32.329Z,63.48
2023-05-02T01:03:58.582Z,63.52
2023-05-02T01:06:24.857Z,63.50
2023-05-02T01:08:51.111Z,63.46
2023-05-02T01:11:17.225Z,63.48
2023-05-02T01:13:43.343Z,63.50
2023-05-02T01:16:09.529Z,63.47
2023-05-02T01:18:35.676Z,63.53
2023-05-02T01:21:01.759Z,63.45
2023-05-02T01:23:27.868Z,63.36
2023-05-02T01:25:53.974Z,63.54
2023-05-02T01:28:20.067Z,63.51
2023-05-02T01:30:46.211Z,63.56
2023-05-02T01:33:12.467Z,63.42
2023-05-02T01:35:38.580Z,63.48
2023-05-02T01:38:04.744Z,63.52
2023-05-02T01:40:30.867Z,63.51
2023-05-02T01:42:56.962Z,63.54
2023-05-02T01:45:23.076Z,63.45
2023-05-02T01:47:49.252Z,63.50
2023-05-02T01:50:15.394Z,63.34
2023-05-02T01:52:41.519Z,63.46
2023-05-02T01:55:07.620Z,63.32
2023-05-02T01:57:33.710Z,63.32
2023-05-02T02:00:00.208Z,63.38
2023-05-02T02:02:26.543Z,63.49
2023-05-02T02:04:52.789Z,63.26
2023-05-02T02:07:18.939Z,63.40
2023-05-02T02:09:45.043Z,63.49
2023-05-02T02:12:11.127Z,63.38
2023-05-02T02:14:37.251Z,63.41
2023-05-02T02:17:03.470Z,63.39
2023-05-02T02:19:29.706Z,63.60
2023-05-02T02:21:55.819Z,63.49
2023-05-02T02:24:21.916Z,63.46
2023-05-02T02:26:48.002Z,63.44
2023-05-02T02:29:14.256Z,63.38
2023-05-02T02:31:40.346Z,63.35
2023-05-02T02:34:06.441Z,63.34
2023-05-02T02:36:32.559Z,63.30
2023-05-02T02:38:58.657Z,63.42
2023-05-02T02:41:24.749Z,63.39
2023-05-02T02:43:50.904Z,63.28
2023-05-02T02:46:17.102Z,63.37
2023-05-02T02:48:43.238Z,63.30
2023-05-02T02:51:09.357Z,63.28
2023-05-02T02:53:35.464Z,63.30
2023-05-02T02:56:01.565Z,63.21
2023-05-02T02:58:27.685Z,63.22
2023-05-02T03:00:53.783Z,63.21
2023-05-02T03:03:19.964Z,63.22
2023-05-02T03:05:46.259Z,63.17
2023-05-02T03:08:12.368Z,63.13
2023-05-02T03:10:38.493Z,63.23
2023-05-02T03:13:04.754Z,63.15
2023-05-02T03:15:30.864Z,63.20
2023-05-02T03:17:56.989Z,63.26
2023-05-02T03:20:23.181Z,63.21
2023-05-02T03:22:49.283Z,63.23
2023-05-02T03:25:15.400Z,63.25
2023-05-02T03:27:41.531Z,63.29
2023-05-02T03:30:07.681Z,63.17
2023-05-02T03:32:33.843Z,63.20
2023-05-02T03:34:59.971Z,63.21
2023-05-02T03:37:26.087Z,63.09
2023-05-02T03:39:52.190Z,63.28
2023-05-02T03:42:18.813Z,63.19
2023-05-02T03:44:44.899Z,63.23
2023-05-02T03:47:11.188Z,63.24
2023-05-02T03:49:37.367Z,63.09
2023-05-02T03:52:03.474Z,63.23
2023-05-02T03:54:29.576Z,63.21
2023-05-02T03:56:55.850Z,63.22
2023-05-02T03:59:21.939Z,63.12
2023-05-02T04:01:48.068Z,63.15
2023-05-02T04:04:14.250Z,63.35
2023-05-02T04:06:40.692Z,63.29
2023-05-02T04:09:06.824Z,63.26
2023-05-02T04:11:33.092Z,63.21
2023-05-02T04:13:59.231Z,63.24
2023-05-02T04:16:25.393Z,63.37
2023-05-02T04:18:51.688Z,63.34
2023-05-02T04:21:17.793Z,63.30
2023-05-02T04:23:43.885Z,63.18
2023-05-02T04:26:10.054Z,63.24
2023-05-02T04:28:36.149Z,63.34
2023-05-02T04:31:02.295Z,63.34
2023-05-02T04:33:28.571Z,63.40
2023-05-02T04:35:54.671Z,63.41
2023-05-02T04:38:20.774Z,63.44
2023-05-02T04:40:47.057Z,63.34
2023-05-02T04:43:13.170Z,63.16
2023-05-02T04:45:39.274Z,63.25
2023-05-02T04:48:05.522Z,63.26
2023-05-02T04:50:31.731Z,63.32
2023-05-02T04:52:58.074Z,63.32
2023-05-02T04:55:24.178Z,63.42
2023-05-02T04:57:50.266Z,63.32
2023-05-02T05:00:16.523Z,63.38
2023-05-02T05:02:42.844Z,63.40
2023-05-02T05:05:09.272Z,63.33
2023-05-02T05:07:35.524Z,63.25
2023-05-02T05:10:02.077Z,63.38
2023-05-02T05:12:28.455Z,63.38
2023-05-02T05:14:54.567Z,63.30
2023-05-02T05:17:20.834Z,63.30
2023-05-02T05:19:46.944Z,63.24
2023-05-02T05:22:13.044Z,63.45
2023-05-02T05:24:39.211Z,63.40
2023-05-02T05:27:05.312Z,63.37
2023-05-02T05:29:31.416Z,63.30
2023-05-02T05:31:57.568Z,63.53
2023-05-02T05:34:23.746Z,63.58
2023-05-02T05:36:49.838Z,63.25
2023-05-02T05:39:16.015Z,63.46
2023-05-02T05:41:42.118Z,63.54
2023-05-02T05:44:08.209Z,63.38
2023-05-02T05:46:34.409Z,63.45
2023-05-02T05:49:00.587Z,63.45
2023-05-02T05:51:26.684Z,63.28
2023-05-02T05:53:52.899Z,63.35
2023-05-02T05:56:19.029Z,63.34
2023-05-02T05:58:45.132Z,63.47
2023-05-02T06:01:11.244Z,63.36
2023-05-02T06:03:37.472Z,63.22
2023-05-02T06:06:03.706Z,63.31
2023-05-02T06:08:30.003Z,63.48
2023-05-02T06:10:56.213Z,63.33
2023-05-02T06:13:22.317Z,63.50
2023-05-02T06:15:48.448Z,63.26
2023-05-02T06:18:14.621Z,63.47
2023-05-02T06:20:40.767Z,63.44
2023-05-02T06:23:06.872Z,63.34
2023-05-02T06:25:32.984Z,63.45
2023-05-02T06:27:59.083Z,63.26
2023-05-02T06:30:25.345Z,63.40
2023-05-02T06:32:51.457Z,63.39
2023-05-02T06:35:17.594Z,63.41
2023-05-02T06:37:43.707Z,63.38
2023-05-02T06:40:09.808Z,63.34
2023-05-02T06:42:35.899Z,63.33
2023-05-02T06:45:02.143Z,63.20
2023-05-02T06:47:28.304Z,63.41
2023-05-02T06:49:54.433Z,63.42
2023-05-02T06:52:20.606Z,63.43
2023-05-02T06:54:46.725Z,63.42
2023-05-02T06:57:12.819Z,63.38
2023-05-02T06:59:39.115Z,63.46
2023-05-02T07:02:05.686Z,63.40
2023-05-02T07:04:31.971Z,63.42
2023-05-02T07:06:58.326Z,63.47
2023-05-02T07:09:24.482Z,63.36
2023-05-02T07:11:50.570Z,63.40
2023-05-02T07:14:16.680Z,63.38
2023-05-02T07:16:42.819Z,63.47
2023-05-02T07:19:08.962Z,63.44
2023-05-02T07:21:35.160Z,63.52
2023-05-02T07:24:01.314Z,63.51
2023-05-02T07:26:27.434Z,63.43
2023-05-02T07:28:53.571Z,63.43
2023-05-02T07:31:19.690Z,63.38
2023-05-02T07:33:45.786Z,63.37
2023-05-02T07:36:12.053Z,63.32
2023-05-02T07:38:38.186Z,63.38
2023-05-02T07:41:04.515Z,63.47
2023-05-02T07:43:30.662Z,63.46
2023-05-02T07:45:56.825Z,63.42
2023-05-02T07:48:23.466Z,63.47
2023-05-02T07:50:50.591Z,63.41
2023-05-02T07:53:16.699Z,63.44
2023-05-02T07:55:42.817Z,63.12
2023-05-02T07:58:09.337Z,63.40
2023-05-02T08:00:35.455Z,63.27
2023-05-02T08:03:01.833Z,63.33
2023-05-02T08:05:28.110Z,63.46
2023-05-02T08:07:54.212Z,63.47
2023-05-02T08:10:20.330Z,63.41
2023-05-02T08:12:46.466Z,63.50
2023-05-02T08:15:12.588Z,63.57
2023-05-02T08:17:38.793Z,63.49
2023-05-02T08:20:05.110Z,63.51
2023-05-02T08:22:31.220Z,63.25
2023-05-02T08:24:57.348Z,63.42
2023-05-02T08:27:23.463Z,63.38
2023-05-02T08:29:49.579Z,63.60
2023-05-02T08:32:15.809Z,63.43
2023-05-02T08:34:42.102Z,63.51
2023-05-02T08:37:08.220Z,63.57
2023-05-02T08:39:34.320Z,63.46
2023-05-02T08:42:00.429Z,63.22
2023-05-02T08:44:26.559Z,63.55
2023-05-02T08:46:52.726Z,63.47
2023-05-02T08:49:19.109Z,63.36
2023-05-02T08:51:45.256Z,63.55
2023-05-02T08:54:11.355Z,63.52
2023-05-02T08:56:37.482Z,63.36
2023-05-02T08:59:03.597Z,63.47
2023-05-02T09:01:29.738Z,63.53
2023-05-02T09:03:55.944Z,63.56
2023-05-02T09:06:22.177Z,63.54
2023-05-02T09:08:48.329Z,63.56
2023-05-02T09:11:14.668Z,63.61
2023-05-02T09:13:40.790Z,63.47
2023-05-02T09:16:06.967Z,63.63
2023-05-02T09:18:33.251Z,63.61
2023-05-02T09:20:59.398Z,63.61
2023-05-02T09:23:26.091Z,63.72
2023-05-02T09:25:52.938Z,63.61
2023-05-02T09:28:19.446Z,63.65
2023-05-02T09:30:45.757Z,63.69
2023-05-02T09:33:21.871Z,63.68
2023-05-02T09:35:57.144Z,63.68
2023-05-02T09:38:23.439Z,63.71
2023-05-02T09:40:49.725Z,63.57
2023-05-02T09:43:16.008Z,63.55
2023-05-02T09:45:42.311Z,63.73
2023-05-02T09:48:09.286Z,63.62
2023-05-02T09:50:35.533Z,63.63
2023-05-02T09:53:01.666Z,63.73
2023-05-02T09:55:28.038Z,63.72
2023-05-02T09:57:54.155Z,63.55
2023-05-02T10:00:20.654Z,63.77
2023-05-02T10:02:46.820Z,63.68
2023-05-02T10:05:12.954Z,63.62
2023-05-02T10:07:39.142Z,63.50
2023-05-02T10:10:05.258Z,63.61
2023-05-02T10:12:31.364Z,63.62
2023-05-02T10:14:57.662Z,63.57
2023-05-02T10:17:24.008Z,63.69
2023-05-02T10:19:50.656Z,63.62
2023-05-02T10:22:17.197Z,63.44
2023-05-02T10:24:43.287Z,63.57
2023-05-02T10:27:09.405Z,63.57
2023-05-02T10:29:36.041Z,63.53
2023-05-02T10:32:02.205Z,63.65
2023-05-02T10:34:28.333Z,63.28
2023-05-02T10:36:54.455Z,63.63
2023-05-02T10:39:20.846Z,63.55
2023-05-02T10:41:47.016Z,63.65
2023-05-02T10:44:13.151Z,63.53
2023-05-02T10:46:39.312Z,63.41
2023-05-02T10:49:05.570Z,63.50
2023-05-02T10:51:31.855Z,63.64
2023-05-02T10:53:57.958Z,63.64
2023-05-02T10:56:24.053Z,63.57
2023-05-02T10:58:50.203Z,63.40
2023-05-02T11:01:16.335Z,63.59
2023-05-02T11:03:42.462Z,63.55
2023-05-02T11:06:08.629Z,63.47
2023-05-02T11:08:34.729Z,63.62
2023-05-02T11:11:00.847Z,63.57
2023-05-02T11:13:26.978Z,63.64
2023-05-02T11:15:53.091Z,63.65
2023-05-02T11:18:19.424Z,63.51
2023-05-02T11:20:45.720Z,63.44
2023-05-02T11:23:11.828Z,63.58
2023-05-02T11:25:37.935Z,63.59
2023-05-02T11:28:04.114Z,63.75
2023-05-02T11:30:30.230Z,63.56
2023-05-02T11:32:56.337Z,63.64
2023-05-02T11:35:22.567Z,63.64
2023-05-02T11:37:48.684Z,63.57
2023-05-02T11:40:14.829Z,63.46
2023-05-02T11:42:40.963Z,63.54
2023-05-02T11:45:07.074Z,63.68
2023-05-02T11:47:33.218Z,63.68
2023-05-02T11:49:59.348Z,63.49
2023-05-02T11:52:25.487Z,63.46
2023-05-02T11:54:51.634Z,63.57
2023-05-02T11:57:17.905Z,63.67
2023-05-02T11:59:44.025Z,63.62
2023-05-02T12:02:10.166Z,63.74
2023-05-02T12:04:36.288Z,63.58
2023-05-02T12:07:02.486Z,63.68
2023-05-02T12:09:28.656Z,63.52
2023-05-02T12:11:54.955Z,63.62
2023-05-02T12:14:21.105Z,63.72
2023-05-02T12:16:47.273Z,63.65
2023-05-02T12:19:13.443Z,63.74
2023-05-02T12:21:39.547Z,63.63
2023-05-02T12:24:05.656Z,63.68
2023-05-02T12:26:31.817Z,63.63
2023-05-02T12:28:58.027Z,63.61
2023-05-02T12:31:24.165Z,63.74
2023-05-02T12:33:50.404Z,63.57
2023-05-02T12:36:16.531Z,63.67
2023-05-02T12:38:42.618Z,63.57
2023-05-02T12:41:08.876Z,63.67
2023-05-02T12:43:36.107Z,63.60
2023-05-02T12:46:02.699Z,63.71
2023-05-02T12:48:28.803Z,63.63
2023-05-02T12:50:54.908Z,63.74
2023-05-02T12:53:21.020Z,63.86
2023-05-02T12:55:47.282Z,63.56
2023-05-02T12:58:13.388Z,63.53
2023-05-02T13:00:39.526Z,63.75
2023-05-02T13:03:05.710Z,63.47
2023-05-02T13:05:31.881Z,63.76
2023-05-02T13:07:57.983Z,63.71
2023-05-02T13:10:24.245Z,63.68
2023-05-02T13:12:50.356Z,63.65
2023-05-02T13:15:16.487Z,63.50
2023-05-02T13:17:42.886Z,63.68
2023-05-02T13:20:09.196Z,63.72
2023-05-02T13:22:35.333Z,63.69
2023-05-02T13:25:01.510Z,63.71
2023-05-02T13:27:27.607Z,63.64
2023-05-02T13:29:53.706Z,63.65
2023-05-02T13:32:19.866Z,63.65
2023-05-02T13:34:46.032Z,63.61
2023-05-02T13:37:12.168Z,63.51
2023-05-02T13:39:39.050Z,63.50
2023-05-02T13:42:06.239Z,63.43
2023-05-02T13:44:32.561Z,63.62
2023-05-02T13:46:58.692Z,63.61
2023-05-02T13:49:24.790Z,63.53
2023-05-02T13:51:50.885Z,63.55
2023-05-02T13:54:17.160Z,63.58
2023-05-02T13:56:43.268Z,63.68
2023-05-02T13:59:10.953Z,63.49
2023-05-02T14:01:37.461Z,63.62
2023-05-02T14:04:03.784Z,63.63
2023-05-02T14:06:29.985Z,63.44
2023-05-02T14:08:56.095Z,63.48
2023-05-02T14:11:22.181Z,63.47
2023-05-02T14:13:48.268Z,63.43
2023-05-02T14:16:14.548Z,63.48
2023-05-02T14:18:40.691Z,63.50
2023-05-02T14:21:06.797Z,63.52
2023-05-02T14:23:32.939Z,63.50
2023-05-02T14:25:59.062Z,63.46
2023-05-02T14:28:25.160Z,63.29
2023-05-02T14:30:51.329Z,63.54
2023-05-02T14:33:17.455Z,63.41
2023-05-02T14:35:43.553Z,63.48
2023-05-02T14:38:09.838Z,63.57
2023-05-02T14:40:35.919Z,63.46
2023-05-02T14:43:02.031Z,63.36
2023-05-02T14:45:28.172Z,63.51
2023-05-02T14:47:54.301Z,63.39
2023-05-02T14:50:20.466Z,63.45
2023-05-02T14:52:46.593Z,63.51
2023-05-02T14:55:12.688Z,63.53
2023-05-02T14:57:38.800Z,63.48
2023-05-02T15:00:05.237Z,63.58
2023-05-02T15:02:31.744Z,63.50
2023-05-02T15:04:57.904Z,63.54
2023-05-02T15:07:24.185Z,63.58
2023-05-02T15:09:50.400Z,63.56
2023-05-02T15:12:16.499Z,63.57
2023-05-02T15:14:42.649Z,63.38
2023-05-02T15:17:08.842Z,63.60
2023-05-02T15:19:34.970Z,63.63
2023-05-02T15:22:03.885Z,63.53
2023-05-02T15:24:30.093Z,63.55
2023-05-02T15:26:56.191Z,63.54
2023-05-02T15:29:22.526Z,63.69
2023-05-02T15:31:48.828Z,63.50
2023-05-02T15:34:15.329Z,63.64
2023-05-02T15:36:41.629Z,63.50
2023-05-02T15:39:07.737Z,63.54
2023-05-02T15:41:33.843Z,63.57
2023-05-02T15:44:00.067Z,63.52
2023-05-02T15:46:26.305Z,63.47
2023-05-02T15:48:52.461Z,63.38
2023-05-02T15:51:18.678Z,63.62
2023-05-02T15:53:46.659Z,63.56
2023-05-02T15:56:12.761Z,63.57
2023-05-02T15:58:38.868Z,63.59
2023-05-02T16:01:05.202Z,63.55
2023-05-02T16:03:31.440Z,63.66
2023-05-02T16:05:57.636Z,63.56
2023-05-02T16:08:23.762Z,63.56
2023-05-02T16:10:49.907Z,63.44
2023-05-02T16:13:16.028Z,63.54
2023-05-02T16:15:42.148Z,63.11
2023-05-02T16:18:08.335Z,63.35
2023-05-02T16:20:34.511Z,63.42
2023-05-02T16:23:00.621Z,63.46
2023-05-02T16:25:26.732Z,63.46
2023-05-02T16:27:52.950Z,63.40
2023-05-02T16:30:19.047Z,63.38
2023-05-02T16:32:45.209Z,63.36
2023-05-02T16:35:11.342Z,63.54
2023-05-02T16:37:37.463Z,63.46
2023-05-02T16:40:03.819Z,63.44
2023-05-02T16:42:30.218Z,63.55
2023-05-02T16:44:56.344Z,63.39
2023-05-02T16:47:22.454Z,63.48
2023-05-02T16:49:48.578Z,63.50
2023-05-02T16:52:14.711Z,63.60
2023-05-02T16:54:40.800Z,63.46
2023-05-02T16:57:06.904Z,63.54
2023-05-02T16:59:33.002Z,63.64
2023-05-02T17:01:59.121Z,63.46
2023-05-02T17:04:27.124Z,63.55
2023-05-02T17:06:53.279Z,63.86
2023-05-02T17:09:19.376Z,63.67
2023-05-02T17:11:45.578Z,63.61
2023-05-02T17:14:11.700Z,63.75
2023-05-02T17:16:37.829Z,63.68
2023-05-02T17:19:04.035Z,63.63
2023-05-02T17:21:30.127Z,63.48
2023-05-02T17:23:56.222Z,63.47
2023-05-02T17:26:22.555Z,63.56
2023-05-02T17:28:48.655Z,63.64
2023-05-02T17:31:14.816Z,63.59
2023-05-02T17:33:40.959Z,63.56
2023-05-02T17:36:07.050Z,63.61
2023-05-02T17:38:33.147Z,63.70
2023-05-02T17:40:59.440Z,63.68
2023-05-02T17:43:25.551Z,63.64
2023-05-02T17:45:51.741Z,63.54
2023-05-02T17:48:18.412Z,63.87
2023-05-02T17:50:44.528Z,63.50
2023-05-02T17:53:10.645Z,63.80
2023-05-02T17:55:36.752Z,63.74
2023-05-02T17:58:02.878Z,63.60
2023-05-02T18:00:29.005Z,63.62
2023-05-02T18:02:55.407Z,63.70
2023-05-02T18:05:21.564Z,63.77
2023-05-02T18:07:47.699Z,63.72
2023-05-02T18:10:13.896Z,63.85
2023-05-02T18:12:40.023Z,63.85
2023-05-02T18:15:06.378Z,63.76
2023-05-02T18:17:32.780Z,63.74
2023-05-02T18:19:58.909Z,63.83
2023-05-02T18:22:25.030Z,63.73
2023-05-02T18:24:51.336Z,63.75
2023-05-02T18:27:17.503Z,63.84
2023-05-02T18:29:43.624Z,63.73
2023-05-02T18:32:10.625Z,63.87
2023-05-02T18:34:38.766Z,63.83
2023-05-02T18:37:08.075Z,63.80
2023-05-02T18:39:34.430Z,63.83
2023-05-02T18:42:00.587Z,63.91
2023-05-02T18:44:26.682Z,63.90
2023-05-02T18:46:52.997Z,63.94
2023-05-02T18:49:19.112Z,63.96
2023-05-02T18:51:45.283Z,63.92
2023-05-02T18:54:11.404Z,63.86
2023-05-02T18:56:37.502Z,63.83
2023-05-02T18:59:03.592Z,63.98
2023-05-02T19:01:29.935Z,63.95
2023-05-02T19:03:56.138Z,63.82
2023-05-02T19:06:22.348Z,63.75
2023-05-02T19:08:48.547Z,63.90
2023-05-02T19:11:14.657Z,63.92
2023-05-02T19:13:40.748Z,64.00
2023-05-02T19:16:07.005Z,64.01
2023-05-02T19:18:33.194Z,63.94
2023-05-02T19:20:59.289Z,63.88
2023-05-02T19:23:25.402Z,63.97
2023-05-02T19:25:51.507Z,63.88
2023-05-02T19:28:17.619Z,63.89
2023-05-02T19:30:43.782Z,63.94
2023-05-02T19:33:10.202Z,63.91
2023-05-02T19:35:36.433Z,63.94
2023-05-02T19:38:02.654Z,63.99
2023-05-02T19:40:28.819Z,64.04
2023-05-02T19:42:54.939Z,64.01
2023-05-02T19:45:21.069Z,64.04
2023-05-02T19:47:47.195Z,63.89
2023-05-02T19:50:13.341Z,63.96
2023-05-02T19:52:39.515Z,64.14
2023-05-02T19:55:05.616Z,63.90
2023-05-02T19:57:31.720Z,64.05
2023-05-02T19:59:57.994Z,64.13
2023-05-02T20:02:24.145Z,63.98
2023-05-02T20:04:50.298Z,64.14
2023-05-02T20:07:16.470Z,64.17
2023-05-02T20:09:42.579Z,64.12
2023-05-02T20:12:08.688Z,64.10
2023-05-02T20:14:34.815Z,64.11
2023-05-02T20:17:01.955Z,64.16
2023-05-02T20:19:28.400Z,63.91
2023-05-02T20:21:54.521Z,64.15
2023-05-02T20:24:20.618Z,64.13
2023-05-02T20:26:46.754Z,64.03
2023-05-02T20:29:13.011Z,64.15
2023-05-02T20:31:39.124Z,64.15
2023-05-02T20:34:05.296Z,64.08
2023-05-02T20:36:32.016Z,64.00
2023-05-02T20:38:58.111Z,64.17
2023-05-02T20:41:24.201Z,64.04
2023-05-02T20:43:50.328Z,64.12
2023-05-02T20:46:16.508Z,64.08
2023-05-02T20:48:42.714Z,64.11
2023-05-02T20:51:08.900Z,64.13
2023-05-02T20:53:34.992Z,64.12
2023-05-02T20:56:01.102Z,63.95
2023-05-02T20:58:27.231Z,64.16
2023-05-02T21:00:53.346Z,64.10
2023-05-02T21:03:19.500Z,64.05
2023-05-02T21:05:45.678Z,64.20
2023-05-02T21:08:11.779Z,64.14
2023-05-02T21:10:38.006Z,63.94
2023-05-02T21:13:04.130Z,64.14
2023-05-02T21:15:30.265Z,64.12
2023-05-02T21:17:56.389Z,64.18
2023-05-02T21:20:22.569Z,63.73
2023-05-02T21:22:48.666Z,64.04
2023-05-02T21:25:14.757Z,64.05
2023-05-02T21:27:40.884Z,64.06
2023-05-02T21:30:06.990Z,64.07
2023-05-02T21:32:33.146Z,64.12
2023-05-02T21:34:59.390Z,64.10
2023-05-02T21:37:25.632Z,64.06
2023-05-02T21:39:51.722Z,63.96
2023-05-02T21:42:17.887Z,64.22
2023-05-02T21:44:43.973Z,64.04
2023-05-02T21:47:10.211Z,64.13
2023-05-02T21:49:36.381Z,64.24
2023-05-02T21:52:02.481Z,64.09
2023-05-02T21:54:28.597Z,63.93
2023-05-02T21:56:54.726Z,64.03
2023-05-02T21:59:20.860Z,64.15
2023-05-02T22:01:47.009Z,64.08
2023-05-02T22:04:13.135Z,64.09
2023-05-02T22:06:39.308Z,64.13
2023-05-02T22:09:05.438Z,64.11
2023-05-02T22:11:31.568Z,63.93
2023-05-02T22:13:57.659Z,64.07
2023-05-02T22:16:23.798Z,64.14
2023-05-02T22:18:49.955Z,63.96
2023-05-02T22:21:16.045Z,64.11
2023-05-02T22:23:42.134Z,64.17
2023-05-02T22:26:08.429Z,64.07
2023-05-02T22:28:34.534Z,63.95
2023-05-02T22:31:00.649Z,64.04
2023-05-02T22:33:26.797Z,64.10
2023-05-02T22:35:52.915Z,64.06
2023-05-02T22:38:19.002Z,64.13
2023-05-02T22:40:45.150Z,64.00
2023-05-02T22:43:11.242Z,63.97
2023-05-02T22:45:37.335Z,64.09
2023-05-02T22:48:03.678Z,63.93
2023-05-02T22:50:29.925Z,64.17
2023-05-02T22:52:56.022Z,64.07
2023-05-02T22:55:22.224Z,64.07
2023-05-02T22:57:48.321Z,64.12
2023-05-02T23:00:14.421Z,64.06
2023-05-02T23:02:40.835Z,64.06
2023-05-02T23:05:07.046Z,64.15
2023-05-02T23:07:33.222Z,63.93
2023-05-02T23:09:59.555Z,64.05
2023-05-02T23:12:25.706Z,64.13
2023-05-02T23:14:51.818Z,64.08
2023-05-02T23:17:17.984Z,64.10
2023-05-02T23:19:44.091Z,64.06
2023-05-02T23:22:10.186Z,64.10
2023-05-02T23:24:36.290Z,64.10
2023-05-02T23:27:02.390Z,64.06
2023-05-02T23:29:28.504Z,64.04
2023-05-02T23:31:54.768Z,64.00
2023-05-02T23:34:20.931Z,63.99
2023-05-02T23:36:47.053Z,63.96
2023-05-02T23:39:13.221Z,64.06
2023-05-02T23:41:39.322Z,63.93
2023-05-02T23:44:05.426Z,63.96
2023-05-02T23:46:31.563Z,64.07
2023-05-02T23:48:57.713Z,64.12
2023-05-02T23:51:23.813Z,63.95
2023-05-02T23:53:49.923Z,64.05
2023-05-02T23:56:16.027Z,64.01
2023-05-02T23:58:42.133Z,64.30
